Impacts TAF Board
For situational awareness. Not to be used for flight planning purposes.
IDs:

KPDX - Portland Intl Arpt, OR, US

Issued at 0520 UTC 08 May 2021
Updated at 0648 UTC 08 May 2021
Potential Impact None Slight Moderate High
Time0553Z 08/07Z 08/08Z 08/09Z 08/10Z 08/11Z 08/12Z 08/13Z 08/14Z 08/15Z 08/16Z 08/17Z 08/18Z 08/19Z>>
Type OBS PRVL PRVL PRVL PRVL PRVL PRVL PRVL PRVL PRVL PRVL PRVL PRVL PRVL
VIS 10 >6 >6 >6 >6 >6 >6 >6 >6 >6 >6 >6 >6 >6
CIG -- -- -- -- -- 60 60 60 60 60 60 60 45 45
Cover FEW SCT SCT SCT SCT BKN BKN BKN BKN BKN BKN BKN OVC OVC
FltCat VFR VFR VFR VFR VFR VFR VFR VFR VFR VFR VFR VFR VFR VFR
WX -- -- -- -- -- -- -- -- -- -- -- -- VCSH VCSH
WDir 310 310 310 310 310 300 300 300 300 300 300 300 170 170
WSpd 6 9 9 9 9 4 4 4 4 4 4 4 4 4
WGst -- -- -- -- -- -- -- -- -- -- -- -- -- --
Raw TAF
KPDX 080520Z 0806/0906 31009KT P6SM SCT060
  FM081100 30004KT P6SM BKN060 BKN200
  FM081800 17004KT P6SM VCSH SCT030 OVC045
  FM090100 28005KT P6SM OVC050


Raw METAR
KPDX 080553Z 31006KT 10SM FEW070 09/03 A3039 RMK AO2 SLP289 T00940033 10161 20094 51017
KPDX 080453Z 31013KT 10SM FEW070 11/03 A3038 RMK AO2 SLP288 T01060028
KPDX 080353Z 31010KT 10SM FEW060 SCT070 11/02 A3036 RMK AO2 SLP280 T01110022

METAR Board
Radar Display
Forecast Discussion
For situational awareness. Not to be used for flight planning purposes.